sensor_id;sensor_type;location;lat;lon;timestamp;pressure;altitude;pressure_sealevel;temperature;humidity
68141;BME280;54941;52.220;104.306;2023-02-21T00:01:51;97372.25;;;-17.22;83.05
68141;BME280;54941;52.220;104.306;2023-02-21T00:04:19;97362.81;;;-17.71;81.72
68141;BME280;54941;52.220;104.306;2023-02-21T00:06:45;97367.22;;;-18.20;79.81
68141;BME280;54941;52.220;104.306;2023-02-21T00:09:12;97377.81;;;-18.13;79.30
68141;BME280;54941;52.220;104.306;2023-02-21T00:11:41;97380.22;;;-18.03;78.78
68141;BME280;54941;52.220;104.306;2023-02-21T00:14:07;97387.69;;;-18.19;78.28
68141;BME280;54941;52.220;104.306;2023-02-21T00:16:34;97383.63;;;-18.22;78.06
68141;BME280;54941;52.220;104.306;2023-02-21T00:19:00;97384.53;;;-18.41;78.11
68141;BME280;54941;52.220;104.306;2023-02-21T00:21:32;97387.81;;;-18.50;78.26
68141;BME280;54941;52.220;104.306;2023-02-21T00:23:58;97382.84;;;-18.33;78.59
68141;BME280;54941;52.220;104.306;2023-02-21T00:26:25;97391.78;;;-18.20;78.35
68141;BME280;54941;52.220;104.306;2023-02-21T00:28:51;97390.81;;;-17.92;78.58
68141;BME280;54941;52.220;104.306;2023-02-21T00:31:18;97384.09;;;-17.62;78.16
68141;BME280;54941;52.220;104.306;2023-02-21T00:33:44;97384.03;;;-17.58;78.09
68141;BME280;54941;52.220;104.306;2023-02-21T00:36:15;97394.13;;;-17.94;77.19
68141;BME280;54941;52.220;104.306;2023-02-21T00:38:43;97391.69;;;-17.97;76.49
68141;BME280;54941;52.220;104.306;2023-02-21T00:41:09;97393.31;;;-17.96;76.46
68141;BME280;54941;52.220;104.306;2023-02-21T00:43:35;97377.28;;;-17.35;77.87
68141;BME280;54941;52.220;104.306;2023-02-21T00:46:02;97383.72;;;-17.18;78.24
68141;BME280;54941;52.220;104.306;2023-02-21T00:48:29;97381.19;;;-17.11;77.48
68141;BME280;54941;52.220;104.306;2023-02-21T00:50:56;97378.69;;;-17.08;77.70
68141;BME280;54941;52.220;104.306;2023-02-21T10:57:51;96866.78;;;-6.79;76.37
68141;BME280;54941;52.220;104.306;2023-02-21T11:00:39;96875.41;;;-6.69;76.79
68141;BME280;54941;52.220;104.306;2023-02-21T11:03:12;96872.97;;;-6.85;76.85
68141;BME280;54941;52.220;104.306;2023-02-21T11:05:48;96875.81;;;-6.91;76.79
68141;BME280;54941;52.220;104.306;2023-02-21T11:08:14;96880.44;;;-6.99;77.07
68141;BME280;54941;52.220;104.306;2023-02-21T11:10:42;96871.94;;;-7.26;77.47
68141;BME280;54941;52.220;104.306;2023-02-21T11:13:18;96869.59;;;-7.29;77.87
68141;BME280;54941;52.220;104.306;2023-02-21T11:15:46;96869.16;;;-7.36;77.19
68141;BME280;54941;52.220;104.306;2023-02-21T11:18:15;96872.59;;;-7.39;77.66
68141;BME280;54941;52.220;104.306;2023-02-21T11:20:42;96868.03;;;-7.62;77.34
68141;BME280;54941;52.220;104.306;2023-02-21T11:23:20;96869.50;;;-7.73;77.98
68141;BME280;54941;52.220;104.306;2023-02-21T11:25:47;96864.97;;;-7.67;78.77
68141;BME280;54941;52.220;104.306;2023-02-21T11:28:20;96853.03;;;-7.77;78.98
68141;BME280;54941;52.220;104.306;2023-02-21T11:30:50;96855.69;;;-7.96;78.84
68141;BME280;54941;52.220;104.306;2023-02-21T11:33:29;96846.09;;;-8.04;78.58
68141;BME280;54941;52.220;104.306;2023-02-21T11:36:08;96854.16;;;-7.99;78.54
68141;BME280;54941;52.220;104.306;2023-02-21T11:38:36;96862.13;;;-8.39;78.43
68141;BME280;54941;52.220;104.306;2023-02-21T11:41:15;96852.03;;;-8.38;78.82
68141;BME280;54941;52.220;104.306;2023-02-21T11:43:46;96850.28;;;-8.04;80.59
68141;BME280;54941;52.220;104.306;2023-02-21T11:46:17;96859.16;;;-8.14;80.27
68141;BME280;54941;52.220;104.306;2023-02-21T11:48:50;96862.91;;;-8.39;79.49
68141;BME280;54941;52.220;104.306;2023-02-21T11:51:29;96852.09;;;-8.72;78.43
68141;BME280;54941;52.220;104.306;2023-02-21T11:53:57;96859.34;;;-9.17;79.44
68141;BME280;54941;52.220;104.306;2023-02-21T11:59:32;96848.09;;;-9.26;81.83
68141;BME280;54941;52.220;104.306;2023-02-21T12:05:10;96851.47;;;-8.93;81.67
68141;BME280;54941;52.220;104.306;2023-02-21T12:07:43;96853.88;;;-8.74;82.12
68141;BME280;54941;52.220;104.306;2023-02-21T12:10:30;96844.53;;;-8.70;81.09
68141;BME280;54941;52.220;104.306;2023-02-21T12:13:03;96845.78;;;-8.62;81.25
68141;BME280;54941;52.220;104.306;2023-02-21T12:15:42;96845.22;;;-9.01;80.38
68141;BME280;54941;52.220;104.306;2023-02-21T12:18:37;96842.00;;;-9.03;81.04
68141;BME280;54941;52.220;104.306;2023-02-21T12:21:17;96848.53;;;-9.18;80.63
68141;BME280;54941;52.220;104.306;2023-02-21T12:23:52;96849.94;;;-9.65;80.81
68141;BME280;54941;52.220;104.306;2023-02-21T12:26:31;96844.16;;;-9.66;81.82
68141;BME280;54941;52.220;104.306;2023-02-21T12:29:10;96852.25;;;-9.44;82.65
68141;BME280;54941;52.220;104.306;2023-02-21T12:31:52;96846.84;;;-9.70;82.65
68141;BME280;54941;52.220;104.306;2023-02-21T12:34:31;96847.72;;;-9.71;82.38
68141;BME280;54941;52.220;104.306;2023-02-21T12:37:14;96841.41;;;-9.78;83.28
68141;BME280;54941;52.220;104.306;2023-02-21T12:39:53;96844.66;;;-9.59;83.26
68141;BME280;54941;52.220;104.306;2023-02-21T12:42:46;96845.06;;;-9.50;83.03
68141;BME280;54941;52.220;104.306;2023-02-21T12:45:29;96846.81;;;-9.34;83.11
68141;BME280;54941;52.220;104.306;2023-02-21T12:48:04;96845.47;;;-9.06;82.82
68141;BME280;54941;52.220;104.306;2023-02-21T12:50:35;96844.72;;;-8.09;82.53
68141;BME280;54941;52.220;104.306;2023-02-21T12:53:09;96841.00;;;-7.87;80.07
68141;BME280;54941;52.220;104.306;2023-02-21T12:55:40;96840.41;;;-8.54;79.54
68141;BME280;54941;52.220;104.306;2023-02-21T12:58:14;96838.97;;;-8.43;79.90
68141;BME280;54941;52.220;104.306;2023-02-21T13:00:49;96848.59;;;-7.72;80.20
68141;BME280;54941;52.220;104.306;2023-02-21T13:03:35;96846.16;;;-8.21;78.06
68141;BME280;54941;52.220;104.306;2023-02-21T13:06:05;96849.38;;;-8.19;79.15
68141;BME280;54941;52.220;104.306;2023-02-21T13:08:43;96846.47;;;-8.93;79.15
68141;BME280;54941;52.220;104.306;2023-02-21T13:11:16;96845.75;;;-9.46;80.38
68141;BME280;54941;52.220;104.306;2023-02-21T13:13:44;96853.91;;;-9.61;81.46
68141;BME280;54941;52.220;104.306;2023-02-21T13:16:11;96846.22;;;-9.57;81.79
68141;BME280;54941;52.220;104.306;2023-02-21T13:18:44;96840.53;;;-9.77;81.99
68141;BME280;54941;52.220;104.306;2023-02-21T13:21:21;96838.91;;;-9.43;82.91
68141;BME280;54941;52.220;104.306;2023-02-21T13:29:49;96839.13;;;-9.47;82.60
68141;BME280;54941;52.220;104.306;2023-02-21T13:32:17;96843.03;;;-9.77;82.80
68141;BME280;54941;52.220;104.306;2023-02-21T13:34:47;96843.31;;;-10.02;83.56
68141;BME280;54941;52.220;104.306;2023-02-21T13:37:20;96834.41;;;-9.89;84.08
68141;BME280;54941;52.220;104.306;2023-02-21T13:39:50;96835.97;;;-9.87;84.43
68141;BME280;54941;52.220;104.306;2023-02-21T13:42:18;96833.56;;;-10.07;84.39
68141;BME280;54941;52.220;104.306;2023-02-21T13:44:47;96836.69;;;-10.39;84.13
68141;BME280;54941;52.220;104.306;2023-02-21T13:47:15;96831.38;;;-10.31;84.88
68141;BME280;54941;52.220;104.306;2023-02-21T13:49:51;96843.75;;;-10.30;85.29
68141;BME280;54941;52.220;104.306;2023-02-21T13:52:33;96836.88;;;-10.25;84.91
68141;BME280;54941;52.220;104.306;2023-02-21T13:55:30;96842.69;;;-10.24;84.01
68141;BME280;54941;52.220;104.306;2023-02-21T14:01:38;96838.69;;;-10.47;83.58
68141;BME280;54941;52.220;104.306;2023-02-21T14:10:24;96834.19;;;-11.18;84.80
68141;BME280;54941;52.220;104.306;2023-02-21T14:12:56;96833.78;;;-11.28;84.32
68141;BME280;54941;52.220;104.306;2023-02-21T14:15:36;96828.63;;;-11.23;84.60
68141;BME280;54941;52.220;104.306;2023-02-21T14:18:02;96831.72;;;-10.98;85.87
68141;BME280;54941;52.220;104.306;2023-02-21T14:20:29;96838.38;;;-10.99;86.44
68141;BME280;54941;52.220;104.306;2023-02-21T14:22:58;96833.22;;;-11.56;85.98
68141;BME280;54941;52.220;104.306;2023-02-21T14:25:26;96835.31;;;-11.25;85.91
68141;BME280;54941;52.220;104.306;2023-02-21T14:27:52;96837.81;;;-11.25;87.04
68141;BME280;54941;52.220;104.306;2023-02-21T14:30:31;96836.09;;;-11.23;87.01
68141;BME280;54941;52.220;104.306;2023-02-21T14:33:15;96850.81;;;-10.99;87.31
68141;BME280;54941;52.220;104.306;2023-02-21T14:35:46;96849.19;;;-10.79;86.90
68141;BME280;54941;52.220;104.306;2023-02-21T14:38:20;96853.88;;;-10.92;86.89
68141;BME280;54941;52.220;104.306;2023-02-21T14:41:03;96847.81;;;-11.07;85.61
68141;BME280;54941;52.220;104.306;2023-02-21T14:46:35;96857.88;;;-11.30;86.14
68141;BME280;54941;52.220;104.306;2023-02-21T14:52:23;96856.41;;;-11.14;86.27
68141;BME280;54941;52.220;104.306;2023-02-21T14:55:21;96866.91;;;-11.27;85.24
68141;BME280;54941;52.220;104.306;2023-02-21T15:01:05;96867.94;;;-11.97;84.87
68141;BME280;54941;52.220;104.306;2023-02-21T15:03:37;96868.00;;;-11.76;85.81
68141;BME280;54941;52.220;104.306;2023-02-21T15:06:11;96869.94;;;-11.63;86.21
68141;BME280;54941;52.220;104.306;2023-02-21T15:08:41;96875.78;;;-11.64;87.04
68141;BME280;54941;52.220;104.306;2023-02-21T15:11:18;96872.13;;;-11.75;85.95
68141;BME280;54941;52.220;104.306;2023-02-21T15:13:46;96872.75;;;-11.28;86.27
68141;BME280;54941;52.220;104.306;2023-02-21T15:16:15;96888.09;;;-11.39;87.13
68141;BME280;54941;52.220;104.306;2023-02-21T15:18:56;96886.03;;;-11.50;86.71
68141;BME280;54941;52.220;104.306;2023-02-21T15:21:23;96888.53;;;-11.29;86.79
68141;BME280;54941;52.220;104.306;2023-02-21T15:24:00;96894.53;;;-11.77;85.84
68141;BME280;54941;52.220;104.306;2023-02-21T15:26:28;96895.91;;;-11.92;84.77
68141;BME280;54941;52.220;104.306;2023-02-21T15:29:06;96909.66;;;-12.05;85.24
68141;BME280;54941;52.220;104.306;2023-02-21T15:31:37;96925.59;;;-12.12;85.37
68141;BME280;54941;52.220;104.306;2023-02-21T15:34:04;96934.13;;;-11.96;84.88
68141;BME280;54941;52.220;104.306;2023-02-21T15:36:31;96952.72;;;-12.06;84.72
68141;BME280;54941;52.220;104.306;2023-02-21T15:39:03;96971.91;;;-11.86;84.23
68141;BME280;54941;52.220;104.306;2023-02-21T15:41:34;96958.31;;;-12.24;83.06
68141;BME280;54941;52.220;104.306;2023-02-21T15:44:06;96963.66;;;-12.11;84.00
68141;BME280;54941;52.220;104.306;2023-02-21T15:46:41;96986.16;;;-11.91;84.37
68141;BME280;54941;52.220;104.306;2023-02-21T15:49:14;97010.28;;;-11.95;84.70
68141;BME280;54941;52.220;104.306;2023-02-21T15:51:43;97020.50;;;-11.79;85.79
68141;BME280;54941;52.220;104.306;2023-02-21T15:54:22;97031.56;;;-11.88;87.14
68141;BME280;54941;52.220;104.306;2023-02-21T15:56:59;97039.31;;;-11.97;88.08
68141;BME280;54941;52.220;104.306;2023-02-21T15:59:27;97049.56;;;-11.81;88.02
68141;BME280;54941;52.220;104.306;2023-02-21T16:02:12;97062.91;;;-11.60;89.53
68141;BME280;54941;52.220;104.306;2023-02-21T16:04:41;97066.69;;;-11.50;88.84
68141;BME280;54941;52.220;104.306;2023-02-21T16:07:16;97069.78;;;-11.45;89.17
68141;BME280;54941;52.220;104.306;2023-02-21T16:09:46;97072.63;;;-11.54;89.21
68141;BME280;54941;52.220;104.306;2023-02-21T16:12:28;97088.09;;;-11.46;89.11
68141;BME280;54941;52.220;104.306;2023-02-21T16:14:57;97085.59;;;-11.46;88.79
68141;BME280;54941;52.220;104.306;2023-02-21T16:17:29;97076.66;;;-11.52;87.86
68141;BME280;54941;52.220;104.306;2023-02-21T16:19:58;97073.16;;;-11.46;87.90
68141;BME280;54941;52.220;104.306;2023-02-21T16:22:32;97063.66;;;-11.58;87.46
68141;BME280;54941;52.220;104.306;2023-02-21T16:25:15;97062.91;;;-11.60;86.26
68141;BME280;54941;52.220;104.306;2023-02-21T16:27:44;97053.13;;;-11.88;86.02
68141;BME280;54941;52.220;104.306;2023-02-21T16:30:12;97053.41;;;-12.22;86.09
68141;BME280;54941;52.220;104.306;2023-02-21T16:32:42;97049.63;;;-12.58;86.31
68141;BME280;54941;52.220;104.306;2023-02-21T16:35:14;97054.25;;;-13.28;85.41
68141;BME280;54941;52.220;104.306;2023-02-21T16:37:42;97065.97;;;-13.05;86.63
68141;BME280;54941;52.220;104.306;2023-02-21T16:40:13;97064.69;;;-12.91;86.84
68141;BME280;54941;52.220;104.306;2023-02-21T16:42:40;97076.31;;;-12.93;88.25
68141;BME280;54941;52.220;104.306;2023-02-21T16:45:07;97078.88;;;-12.94;89.48
68141;BME280;54941;52.220;104.306;2023-02-21T16:47:33;97082.31;;;-13.00;89.03
68141;BME280;54941;52.220;104.306;2023-02-21T16:50:01;97107.13;;;-12.72;88.79
68141;BME280;54941;52.220;104.306;2023-02-21T16:52:29;97117.16;;;-12.49;89.20
68141;BME280;54941;52.220;104.306;2023-02-21T16:54:55;97121.13;;;-12.43;88.70
68141;BME280;54941;52.220;104.306;2023-02-21T16:57:22;97122.00;;;-12.44;88.08
68141;BME280;54941;52.220;104.306;2023-02-21T16:59:48;97126.47;;;-12.29;87.64
68141;BME280;54941;52.220;104.306;2023-02-21T17:02:15;97131.06;;;-12.17;87.84
68141;BME280;54941;52.220;104.306;2023-02-21T17:04:41;97132.38;;;-12.31;87.04
68141;BME280;54941;52.220;104.306;2023-02-21T17:07:09;97140.31;;;-12.22;87.42
68141;BME280;54941;52.220;104.306;2023-02-21T17:09:36;97140.31;;;-12.22;87.62
68141;BME280;54941;52.220;104.306;2023-02-21T17:12:02;97145.38;;;-12.23;87.29
68141;BME280;54941;52.220;104.306;2023-02-21T17:14:29;97145.59;;;-12.31;86.87
68141;BME280;54941;52.220;104.306;2023-02-21T17:16:55;97151.75;;;-12.16;87.21
68141;BME280;54941;52.220;104.306;2023-02-21T17:19:22;97159.13;;;-12.15;86.54
68141;BME280;54941;52.220;104.306;2023-02-21T17:21:48;97165.38;;;-12.02;86.37
68141;BME280;54941;52.220;104.306;2023-02-21T17:24:17;97163.13;;;-12.09;86.33
68141;BME280;54941;52.220;104.306;2023-02-21T17:26:44;97160.44;;;-12.03;86.68
68141;BME280;54941;52.220;104.306;2023-02-21T17:29:11;97160.63;;;-12.09;86.32
68141;BME280;54941;52.220;104.306;2023-02-21T17:31:38;97167.13;;;-12.05;86.61
68141;BME280;54941;52.220;104.306;2023-02-21T17:34:05;97173.31;;;-12.18;87.02
68141;BME280;54941;52.220;104.306;2023-02-21T17:36:31;97166.50;;;-12.38;86.54
68141;BME280;54941;52.220;104.306;2023-02-21T17:38:58;97167.91;;;-12.57;86.88
68141;BME280;54941;52.220;104.306;2023-02-21T17:41:26;97171.63;;;-12.44;87.06
68141;BME280;54941;52.220;104.306;2023-02-21T17:43:52;97166.00;;;-12.49;86.20
68141;BME280;54941;52.220;104.306;2023-02-21T17:46:19;97168.50;;;-12.49;87.65
68141;BME280;54941;52.220;104.306;2023-02-21T17:48:46;97175.72;;;-12.71;86.00
68141;BME280;54941;52.220;104.306;2023-02-21T17:51:22;97177.44;;;-12.71;85.21
68141;BME280;54941;52.220;104.306;2023-02-21T17:53:49;97181.09;;;-12.85;85.19
68141;BME280;54941;52.220;104.306;2023-02-21T17:56:17;97183.69;;;-13.17;84.98
68141;BME280;54941;52.220;104.306;2023-02-21T17:58:44;97180.47;;;-12.91;84.98
68141;BME280;54941;52.220;104.306;2023-02-21T18:01:14;97188.94;;;-12.98;85.56
68141;BME280;54941;52.220;104.306;2023-02-21T18:03:41;97193.50;;;-13.14;84.79
68141;BME280;54941;52.220;104.306;2023-02-21T18:06:07;97190.41;;;-13.20;85.17
68141;BME280;54941;52.220;104.306;2023-02-21T18:08:34;97197.75;;;-13.17;84.49
68141;BME280;54941;52.220;104.306;2023-02-21T18:11:00;97202.16;;;-13.27;84.92
68141;BME280;54941;52.220;104.306;2023-02-21T18:13:26;97203.91;;;-13.32;84.32
68141;BME280;54941;52.220;104.306;2023-02-21T18:15:54;97198.88;;;-13.29;84.29
68141;BME280;54941;52.220;104.306;2023-02-21T18:18:21;97192.00;;;-13.50;83.57
68141;BME280;54941;52.220;104.306;2023-02-21T18:20:47;97198.72;;;-13.55;83.62
68141;BME280;54941;52.220;104.306;2023-02-21T18:23:13;97197.25;;;-13.30;84.25
68141;BME280;54941;52.220;104.306;2023-02-21T18:25:40;97200.72;;;-13.36;84.48
68141;BME280;54941;52.220;104.306;2023-02-21T18:28:06;97198.91;;;-13.63;84.09
68141;BME280;54941;52.220;104.306;2023-02-21T18:30:33;97208.34;;;-13.43;83.92
68141;BME280;54941;52.220;104.306;2023-02-21T18:33:00;97201.00;;;-13.15;84.05
68141;BME280;54941;52.220;104.306;2023-02-21T18:35:27;97205.78;;;-13.09;85.16
68141;BME280;54941;52.220;104.306;2023-02-21T18:37:53;97203.38;;;-13.43;84.31
68141;BME280;54941;52.220;104.306;2023-02-21T18:40:20;97204.81;;;-13.34;83.68
68141;BME280;54941;52.220;104.306;2023-02-21T18:42:46;97205.47;;;-13.28;83.58
68141;BME280;54941;52.220;104.306;2023-02-21T18:45:12;97209.72;;;-13.33;84.00
68141;BME280;54941;52.220;104.306;2023-02-21T18:47:39;97208.91;;;-13.33;84.14
68141;BME280;54941;52.220;104.306;2023-02-21T18:50:07;97208.66;;;-13.23;84.95
68141;BME280;54941;52.220;104.306;2023-02-21T18:52:34;97216.72;;;-13.16;84.41
68141;BME280;54941;52.220;104.306;2023-02-21T18:55:00;97206.22;;;-12.97;84.76
68141;BME280;54941;52.220;104.306;2023-02-21T18:57:27;97216.38;;;-13.04;84.46
68141;BME280;54941;52.220;104.306;2023-02-21T18:59:53;97211.94;;;-12.93;85.48
68141;BME280;54941;52.220;104.306;2023-02-21T19:02:19;97212.31;;;-13.07;84.38
68141;BME280;54941;52.220;104.306;2023-02-21T19:04:46;97212.00;;;-12.96;85.31
68141;BME280;54941;52.220;104.306;2023-02-21T19:07:15;97213.09;;;-12.75;85.91
68141;BME280;54941;52.220;104.306;2023-02-21T19:09:43;97210.66;;;-12.77;84.99
68141;BME280;54941;52.220;104.306;2023-02-21T19:12:09;97211.88;;;-12.62;85.37
68141;BME280;54941;52.220;104.306;2023-02-21T19:14:36;97201.19;;;-12.64;84.84
68141;BME280;54941;52.220;104.306;2023-02-21T19:17:03;97207.81;;;-12.37;85.35
68141;BME280;54941;52.220;104.306;2023-02-21T19:19:30;97211.13;;;-12.37;84.78
68141;BME280;54941;52.220;104.306;2023-02-21T19:21:56;97213.69;;;-12.12;85.26
68141;BME280;54941;52.220;104.306;2023-02-21T19:24:24;97210.06;;;-12.28;84.41
68141;BME280;54941;52.220;104.306;2023-02-21T19:26:51;97209.09;;;-12.24;84.16
68141;BME280;54941;52.220;104.306;2023-02-21T19:29:17;97209.97;;;-12.26;84.18
68141;BME280;54941;52.220;104.306;2023-02-21T19:31:43;97201.41;;;-12.16;86.30
68141;BME280;54941;52.220;104.306;2023-02-21T19:34:10;97209.53;;;-12.11;85.53
68141;BME280;54941;52.220;104.306;2023-02-21T19:36:36;97201.88;;;-12.31;84.36
68141;BME280;54941;52.220;104.306;2023-02-21T19:39:03;97202.19;;;-12.42;85.90
68141;BME280;54941;52.220;104.306;2023-02-21T19:41:31;97205.53;;;-12.43;86.46
68141;BME280;54941;52.220;104.306;2023-02-21T19:43:58;97200.97;;;-12.29;86.95
68141;BME280;54941;52.220;104.306;2023-02-21T19:46:26;97203.59;;;-12.33;87.81
68141;BME280;54941;52.220;104.306;2023-02-21T19:48:53;97212.78;;;-12.09;87.44
68141;BME280;54941;52.220;104.306;2023-02-21T19:51:21;97207.75;;;-12.34;87.48
68141;BME280;54941;52.220;104.306;2023-02-21T19:53:48;97218.53;;;-12.35;87.99
68141;BME280;54941;52.220;104.306;2023-02-21T19:56:15;97213.09;;;-12.48;88.82
68141;BME280;54941;52.220;104.306;2023-02-21T19:58:43;97214.38;;;-12.34;89.15
68141;BME280;54941;52.220;104.306;2023-02-21T20:01:09;97212.31;;;-12.20;88.33
68141;BME280;54941;52.220;104.306;2023-02-21T20:03:36;97221.91;;;-12.10;87.95
68141;BME280;54941;52.220;104.306;2023-02-21T20:06:02;97224.63;;;-12.45;87.31
68141;BME280;54941;52.220;104.306;2023-02-21T20:08:29;97220.19;;;-12.36;88.14
68141;BME280;54941;52.220;104.306;2023-02-21T20:10:55;97224.22;;;-12.31;86.79
68141;BME280;54941;52.220;104.306;2023-02-21T20:13:22;97218.94;;;-12.21;86.84
68141;BME280;54941;52.220;104.306;2023-02-21T20:15:50;97227.19;;;-12.20;86.02
68141;BME280;54941;52.220;104.306;2023-02-21T20:18:16;97225.59;;;-12.23;84.86
68141;BME280;54941;52.220;104.306;2023-02-21T20:20:43;97231.94;;;-12.13;84.59
68141;BME280;54941;52.220;104.306;2023-02-21T20:23:10;97242.53;;;-12.36;84.58
68141;BME280;54941;52.220;104.306;2023-02-21T20:25:36;97250.72;;;-12.32;84.22
68141;BME280;54941;52.220;104.306;2023-02-21T20:28:03;97248.97;;;-12.28;84.92
68141;BME280;54941;52.220;104.306;2023-02-21T20:30:29;97252.63;;;-12.12;86.13
68141;BME280;54941;52.220;104.306;2023-02-21T20:32:57;97245.13;;;-11.84;86.86
68141;BME280;54941;52.220;104.306;2023-02-21T20:35:24;97258.34;;;-11.58;87.14
68141;BME280;54941;52.220;104.306;2023-02-21T20:37:50;97255.66;;;-11.52;87.15
68141;BME280;54941;52.220;104.306;2023-02-21T20:40:17;97254.44;;;-11.40;86.87
68141;BME280;54941;52.220;104.306;2023-02-21T20:42:43;97254.31;;;-11.36;87.16
68141;BME280;54941;52.220;104.306;2023-02-21T20:45:10;97263.00;;;-11.49;86.18
68141;BME280;54941;52.220;104.306;2023-02-21T20:47:37;97255.28;;;-11.66;85.99
68141;BME280;54941;52.220;104.306;2023-02-21T20:50:06;97255.69;;;-11.78;85.58
68141;BME280;54941;52.220;104.306;2023-02-21T20:52:32;97253.72;;;-11.68;84.56
68141;BME280;54941;52.220;104.306;2023-02-21T20:54:59;97252.34;;;-11.77;84.20
68141;BME280;54941;52.220;104.306;2023-02-21T20:57:25;97256.19;;;-11.68;83.93
68141;BME280;54941;52.220;104.306;2023-02-21T20:59:52;97247.88;;;-11.67;84.07
68141;BME280;54941;52.220;104.306;2023-02-21T21:02:18;97253.16;;;-11.76;84.23
68141;BME280;54941;52.220;104.306;2023-02-21T21:04:45;97260.16;;;-11.63;83.60
68141;BME280;54941;52.220;104.306;2023-02-21T21:07:16;97249.50;;;-11.66;83.36
68141;BME280;54941;52.220;104.306;2023-02-21T21:09:43;97248.91;;;-11.73;84.46
68141;BME280;54941;52.220;104.306;2023-02-21T21:12:11;97253.22;;;-11.53;85.34
68141;BME280;54941;52.220;104.306;2023-02-21T21:14:40;97262.41;;;-11.30;86.36
68141;BME280;54941;52.220;104.306;2023-02-21T21:17:06;97258.09;;;-11.25;86.13
68141;BME280;54941;52.220;104.306;2023-02-21T21:19:33;97256.34;;;-11.22;85.38
68141;BME280;54941;52.220;104.306;2023-02-21T21:22:00;97263.34;;;-11.33;86.11
68141;BME280;54941;52.220;104.306;2023-02-21T21:24:28;97262.97;;;-11.22;85.65
68141;BME280;54941;52.220;104.306;2023-02-21T21:26:54;97267.06;;;-11.20;86.13
68141;BME280;54941;52.220;104.306;2023-02-21T21:29:21;97267.94;;;-11.22;86.29
68141;BME280;54941;52.220;104.306;2023-02-21T21:31:48;97276.50;;;-11.05;85.82
68141;BME280;54941;52.220;104.306;2023-02-21T21:34:16;97271.25;;;-10.97;85.49
68141;BME280;54941;52.220;104.306;2023-02-21T21:36:43;97282.81;;;-10.96;85.73
68141;BME280;54941;52.220;104.306;2023-02-21T21:39:10;97279.84;;;-10.82;85.07
68141;BME280;54941;52.220;104.306;2023-02-21T21:41:37;97281.56;;;-10.83;84.66
68141;BME280;54941;52.220;104.306;2023-02-21T21:44:04;97285.06;;;-10.89;84.84
68141;BME280;54941;52.220;104.306;2023-02-21T21:46:30;97277.72;;;-11.16;84.23
68141;BME280;54941;52.220;104.306;2023-02-21T21:48:56;97282.59;;;-11.13;83.36
68141;BME280;54941;52.220;104.306;2023-02-21T21:51:25;97287.50;;;-11.12;83.66
68141;BME280;54941;52.220;104.306;2023-02-21T21:53:52;97287.25;;;-11.04;83.98
68141;BME280;54941;52.220;104.306;2023-02-21T21:56:21;97287.06;;;-10.98;84.93
68141;BME280;54941;52.220;104.306;2023-02-21T21:58:49;97289.09;;;-11.09;84.33
68141;BME280;54941;52.220;104.306;2023-02-21T22:01:16;97290.09;;;-11.15;84.43
68141;BME280;54941;52.220;104.306;2023-02-21T22:03:42;97286.38;;;-11.03;83.87
68141;BME280;54941;52.220;104.306;2023-02-21T22:06:08;97284.50;;;-10.97;84.27
68141;BME280;54941;52.220;104.306;2023-02-21T22:08:35;97292.06;;;-11.00;83.60
68141;BME280;54941;52.220;104.306;2023-02-21T22:11:01;97288.97;;;-11.06;83.62
68141;BME280;54941;52.220;104.306;2023-02-21T22:13:28;97298.91;;;-11.05;83.21
68141;BME280;54941;52.220;104.306;2023-02-21T22:15:56;97296.81;;;-11.17;82.85
68141;BME280;54941;52.220;104.306;2023-02-21T22:18:22;97288.47;;;-11.16;81.81
68141;BME280;54941;52.220;104.306;2023-02-21T22:20:48;97293.13;;;-11.07;81.71
68141;BME280;54941;52.220;104.306;2023-02-21T22:23:16;97295.84;;;-10.88;82.01
68141;BME280;54941;52.220;104.306;2023-02-21T22:25:43;97296.97;;;-10.73;84.01
68141;BME280;54941;52.220;104.306;2023-02-21T22:28:11;97300.13;;;-10.68;83.89
68141;BME280;54941;52.220;104.306;2023-02-21T22:30:38;97310.03;;;-10.67;83.60
68141;BME280;54941;52.220;104.306;2023-02-21T22:33:08;97309.03;;;-10.61;83.51
68141;BME280;54941;52.220;104.306;2023-02-21T22:35:36;97306.81;;;-10.70;83.04
68141;BME280;54941;52.220;104.306;2023-02-21T22:38:02;97314.63;;;-10.79;83.18
68141;BME280;54941;52.220;104.306;2023-02-21T22:40:29;97311.31;;;-10.80;82.65
68141;BME280;54941;52.220;104.306;2023-02-21T22:42:58;97301.75;;;-10.67;82.92
68141;BME280;54941;52.220;104.306;2023-02-21T22:45:26;97309.69;;;-10.81;82.43
68141;BME280;54941;52.220;104.306;2023-02-21T22:47:53;97304.00;;;-10.84;82.29
68141;BME280;54941;52.220;104.306;2023-02-21T22:50:22;97304.47;;;-10.98;81.96
68141;BME280;54941;52.220;104.306;2023-02-21T22:52:49;97306.84;;;-10.95;82.14
68141;BME280;54941;52.220;104.306;2023-02-21T22:55:16;97305.44;;;-11.02;82.28
68141;BME280;54941;52.220;104.306;2023-02-21T22:57:42;97310.75;;;-10.88;82.51
68141;BME280;54941;52.220;104.306;2023-02-21T23:00:09;97309.91;;;-10.87;82.47
68141;BME280;54941;52.220;104.306;2023-02-21T23:02:36;97307.75;;;-10.73;82.80
68141;BME280;54941;52.220;104.306;2023-02-21T23:05:02;97308.31;;;-10.90;82.89
68141;BME280;54941;52.220;104.306;2023-02-21T23:07:30;97316.41;;;-10.83;82.87
68141;BME280;54941;52.220;104.306;2023-02-21T23:09:57;97314.06;;;-10.88;83.76
68141;BME280;54941;52.220;104.306;2023-02-21T23:12:23;97318.81;;;-10.81;83.69
68141;BME280;54941;52.220;104.306;2023-02-21T23:14:49;97328.03;;;-10.60;83.14
68141;BME280;54941;52.220;104.306;2023-02-21T23:17:16;97326.38;;;-10.60;83.29
68141;BME280;54941;52.220;104.306;2023-02-21T23:19:42;97326.13;;;-10.52;83.69
68141;BME280;54941;52.220;104.306;2023-02-21T23:22:08;97323.31;;;-10.43;83.12